« 筑波海軍航空隊記念館 笠間市 2017/11/27 mon | トップページ | 去来1 成田国際空港 2017/10/30 mon »

2017/11/28

曇天 百里飛行場 2017/11/27 mon

友部から百里原へ、旧軍跡を訪ねます。ちょっとお昼休みね。
RJAH 270300Z 06011KT 030V090 9999 FEW025 BKN035 12/04 Q1027

20171127_rjah_00b1840

CQH8987 ZSPD-RJAH B-1840 A320-214
丁度到着したところ。

20171127_rjah_01t065627

ブラックさんがT/G中

20171127_rjah_02t865610

86-5610 T-4 302SQ A-B2
RJAH 270400Z 08011KT 9999 FEW020 BKN030 11/03 Q1027

20171127_rjah_03t365695

かえるさんは、ローアプローチ

20171127_rjah_04t365695

36-5695 T-4 301SQ L63

20171127_rjah_05b1840

20171127_rjah_06b1840

20171127_rjah_07b1840

CQH8988 RJAH-ZSPD B-1840 A320-214

20171127_rjah_08f178439

17-8439 F-4EJk 301SQ L17
T/Gの輪に参加

20171127_rjah_09t365695

ウエストアプローチ

20171127_rjah_10t065643

06-5643 T-4 301SQ L162

20171127_rjah_11f178439

F-4さんフルストップ

20171127_rjah_12f576913

きつつきさん出場

20171127_rjah_13huh

UHさんお帰り 機番はわからない B53

20171127_rjah_15f576913

57-6913 / 57-6907 RF-4E 501SQ I01/02

20171127_rjah_16f576913

なんとか収まった

20171127_rjah_17t765756

77-6392 T-4 CAF D21

20171127_rjah_18f776392

20171127_rjah_19f776392

77-6392 RF-4EJ 501SQ I03
RJAH 270500Z 06010KT 030V090 9999 FEW020 BKN030 11/03 Q1027

20171127_rjah_20t865610

86-5610 T-4 302SQ A-B1

20171127_rjah_21t065627

20171127_rjah_22t065627

06-5627 T-4 302SQ A-B2

20171127_rjah_23t865610

そろって航法訓練かな オジロのお爺さんは見れなかった。

20171127_rjah_24baria

ウエストのバリア点検 この辺りで離脱です。

20171127_rjah_25f576913

移動途中で、きつつきさんのお帰りを。それにしても、午前の青空はどこへ



|

« 筑波海軍航空隊記念館 笠間市 2017/11/27 mon | トップページ | 去来1 成田国際空港 2017/10/30 mon »

百里飛行場」カテゴリの記事

コメント

コメントを書く



(ウェブ上には掲載しません)


コメントは記事投稿者が公開するまで表示されません。



トラックバック


この記事へのトラックバック一覧です: 曇天 百里飛行場 2017/11/27 mon:

« 筑波海軍航空隊記念館 笠間市 2017/11/27 mon | トップページ | 去来1 成田国際空港 2017/10/30 mon »